Brighton, Colorado
Current Conditions -  °F | °C
As of 9:15 PM on Wednesday 28 Jan 2015 (Local Time) from KEIK Reporting Station
Clear Clear  
Wind Chill: 39°   Ceiling: Unl
Heat Index: 39°   Visibility: 10mi
Dew Point: 32°   Wind: 3mph
Humidity: 76%   Direction: 230°SW
Pressure: 30.27"   Gusts: NA
Location:  39.99°N, 104.81°W
Report Text: KEIK 290415Z AUTO 23003KT 10SM CLR 04/00 A3027 RMK AO2 T00390000
Loading
Personal Weather Stations






























Interactive Weather Map New forecast layout! Learn more

10-Day Weather Forecast

Advertisements
Track Severe Weather on mobile